createdAt,value
2022-11-04T00:01:46.893Z,7.00
2022-11-04T00:04:07.655Z,6.55
2022-11-04T00:06:27.738Z,6.47
2022-11-04T00:08:51.780Z,8.02
2022-11-04T00:11:30.465Z,6.90
2022-11-04T00:13:51.256Z,6.72
2022-11-04T00:16:30.220Z,7.05
2022-11-04T00:18:50.065Z,6.57
2022-11-04T00:21:27.968Z,5.90
2022-11-04T00:24:05.980Z,8.15
2022-11-04T00:26:44.568Z,7.30
2022-11-04T00:29:04.672Z,8.15
2022-11-04T00:31:43.106Z,7.68
2022-11-04T00:34:02.767Z,7.82
2022-11-04T00:36:26.164Z,7.43
2022-11-04T00:41:25.292Z,7.43
2022-11-04T00:43:45.232Z,7.15
2022-11-04T00:46:05.394Z,8.02
2022-11-04T00:48:25.481Z,6.60
2022-11-04T00:50:45.636Z,5.57
2022-11-04T00:53:05.554Z,2.40
2022-11-04T00:55:25.701Z,2.20
2022-11-04T00:57:45.494Z,2.60
2022-11-04T01:00:07.029Z,2.80
2022-11-04T01:02:27.152Z,3.45
2022-11-04T01:04:47.357Z,3.30
2022-11-04T01:07:07.124Z,4.47
2022-11-04T01:09:26.912Z,5.40
2022-11-04T01:11:46.566Z,6.03
2022-11-04T01:14:07.753Z,6.28
2022-11-04T01:18:53.595Z,4.88
2022-11-04T01:21:14.812Z,4.63
2022-11-04T01:23:34.939Z,3.45
2022-11-04T01:25:54.852Z,3.30
2022-11-04T01:28:14.825Z,2.10
2022-11-04T01:30:36.877Z,1.70
2022-11-04T01:32:56.354Z,1.30
2022-11-04T01:35:17.333Z,1.95
2022-11-04T01:37:37.018Z,1.13
2022-11-04T01:39:56.788Z,1.85
2022-11-04T01:42:21.633Z,1.63
2022-11-04T01:44:41.745Z,1.40
2022-11-04T01:47:01.292Z,1.65
2022-11-04T01:49:32.479Z,2.10
2022-11-04T01:51:58.859Z,1.80
2022-11-04T01:54:18.973Z,1.70
2022-11-04T01:56:41.361Z,1.50
2022-11-04T01:59:08.335Z,2.17
2022-11-04T02:01:28.264Z,2.47
2022-11-04T02:04:21.537Z,1.77
2022-11-04T02:06:41.256Z,1.70
2022-11-04T02:09:00.997Z,2.05
2022-11-04T02:11:39.470Z,1.75
2022-11-04T02:14:01.099Z,1.73
2022-11-04T02:16:32.862Z,1.50
2022-11-04T02:19:14.268Z,1.65
2022-11-04T02:22:13.699Z,1.65
2022-11-04T02:25:20.895Z,2.10
2022-11-04T02:27:59.294Z,1.77
2022-11-04T02:30:21.270Z,1.63
2022-11-04T02:32:52.523Z,1.92
2022-11-04T02:35:16.231Z,2.20
2022-11-04T02:38:07.038Z,2.20
2022-11-04T02:40:51.551Z,2.00
2022-11-04T02:43:32.400Z,2.50
2022-11-04T02:46:07.660Z,1.90
2022-11-04T02:48:38.333Z,1.70
2022-11-04T02:51:10.242Z,2.28
2022-11-04T02:53:38.812Z,2.03
2022-11-04T02:56:00.358Z,1.92
2022-11-04T02:58:42.226Z,2.55
2022-11-04T03:01:04.260Z,3.17
2022-11-04T03:03:38.035Z,2.57
2022-11-04T03:06:00.729Z,2.53
2022-11-04T03:08:27.103Z,2.97
2022-11-04T03:10:54.054Z,3.13
2022-11-04T03:13:24.494Z,3.08
2022-11-04T03:15:57.869Z,2.60
2022-11-04T03:18:22.217Z,2.70
2022-11-04T03:20:44.693Z,2.70
2022-11-04T03:23:04.881Z,2.47
2022-11-04T03:25:27.990Z,3.80
2022-11-04T03:30:20.090Z,2.50
2022-11-04T03:32:52.234Z,2.53
2022-11-04T03:35:14.503Z,3.00
2022-11-04T03:37:34.581Z,2.40
2022-11-04T03:39:55.026Z,2.70
2022-11-04T03:42:20.955Z,3.83
2022-11-04T03:44:41.210Z,3.40
2022-11-04T03:47:00.953Z,3.30
2022-11-04T03:49:22.570Z,3.00
2022-11-04T03:51:42.477Z,3.50
2022-11-04T03:54:02.503Z,2.58
2022-11-04T03:57:10.135Z,3.22
2022-11-04T04:00:08.650Z,2.20
2022-11-04T04:02:38.119Z,2.00
2022-11-04T04:05:26.641Z,2.28
2022-11-04T04:08:18.621Z,2.70
2022-11-04T04:10:51.740Z,2.15
2022-11-04T04:13:35.469Z,2.30
2022-11-04T04:16:05.561Z,2.35
2022-11-04T04:18:35.863Z,1.60
2022-11-04T04:20:58.082Z,2.45
2022-11-04T04:23:42.048Z,1.63
2022-11-04T04:26:24.668Z,2.53
2022-11-04T04:28:46.230Z,2.83
2022-11-04T04:31:09.052Z,2.13
2022-11-04T04:33:28.720Z,2.65
2022-11-04T04:35:54.597Z,2.15
2022-11-04T04:38:42.601Z,2.22
2022-11-04T04:41:32.765Z,2.67
2022-11-04T04:44:10.880Z,1.70
2022-11-04T04:46:31.518Z,2.17
2022-11-04T04:48:51.395Z,2.63
2022-11-04T04:51:11.248Z,2.30
2022-11-04T04:53:30.763Z,2.78
2022-11-04T04:55:50.268Z,2.47
2022-11-04T04:58:10.070Z,2.95
2022-11-04T05:00:31.993Z,1.90
2022-11-04T05:02:51.978Z,2.47
2022-11-04T05:07:40.377Z,2.33
2022-11-04T05:10:00.626Z,2.10
2022-11-04T05:12:20.597Z,1.83
2022-11-04T05:14:40.606Z,1.98
2022-11-04T05:17:00.277Z,2.05
2022-11-04T05:19:20.011Z,1.80
2022-11-04T05:21:39.645Z,2.05
2022-11-04T05:23:59.365Z,1.90
2022-11-04T05:26:18.763Z,1.55
2022-11-04T05:28:38.282Z,1.73
2022-11-04T05:31:03.381Z,1.40
2022-11-04T05:33:23.260Z,1.52
2022-11-04T05:35:42.964Z,1.90
2022-11-04T05:38:03.048Z,1.77
2022-11-04T05:40:23.326Z,1.40
2022-11-04T05:42:43.049Z,2.00
2022-11-04T05:45:03.965Z,2.42
2022-11-04T05:47:24.312Z,2.22
2022-11-04T05:49:43.939Z,2.08
2022-11-04T05:52:04.853Z,1.40
2022-11-04T05:54:25.894Z,1.63
2022-11-04T05:56:46.126Z,2.10
2022-11-04T05:59:07.213Z,2.22
2022-11-04T06:01:35.298Z,1.80
2022-11-04T06:03:56.103Z,2.10
2022-11-04T06:06:15.955Z,1.92
2022-11-04T06:08:38.856Z,1.80
2022-11-04T06:11:00.964Z,2.40
2022-11-04T06:13:20.536Z,3.45
2022-11-04T06:15:40.595Z,2.30
2022-11-04T06:18:00.152Z,2.47
2022-11-04T06:20:19.968Z,2.38
2022-11-04T06:22:39.790Z,2.15
2022-11-04T06:24:59.581Z,3.42
2022-11-04T06:27:19.577Z,2.13
2022-11-04T06:29:40.562Z,1.98
2022-11-04T06:32:00.273Z,2.20
2022-11-04T06:34:19.917Z,3.75
2022-11-04T06:36:39.447Z,2.65
2022-11-04T06:39:04.368Z,3.22
2022-11-04T06:41:24.701Z,3.33
2022-11-04T06:43:45.378Z,2.42
2022-11-04T06:46:05.826Z,2.95
2022-11-04T06:48:26.423Z,2.75
2022-11-04T06:50:46.361Z,2.63
2022-11-04T06:53:06.009Z,2.80
2022-11-04T06:55:26.031Z,1.98
2022-11-04T06:57:45.835Z,2.53
2022-11-04T07:00:06.532Z,3.03
2022-11-04T07:02:26.642Z,3.72
2022-11-04T07:04:46.585Z,3.15
2022-11-04T07:07:06.296Z,3.60
2022-11-04T07:09:25.824Z,4.85
2022-11-04T07:11:45.597Z,3.60
2022-11-04T07:14:05.485Z,2.78
2022-11-04T07:16:25.493Z,4.32
2022-11-04T07:18:45.458Z,4.15
2022-11-04T07:21:09.931Z,2.75
2022-11-04T07:23:30.825Z,3.88
2022-11-04T07:25:50.618Z,3.50
2022-11-04T07:28:11.217Z,3.45
2022-11-04T07:30:31.618Z,4.38
2022-11-04T07:32:51.937Z,3.50
2022-11-04T07:35:11.518Z,2.75
2022-11-04T07:37:31.426Z,1.73
2022-11-04T07:39:51.276Z,1.30
2022-11-04T07:42:10.816Z,1.13
2022-11-04T07:44:30.608Z,1.52
2022-11-04T07:46:50.355Z,1.13
2022-11-04T07:49:10.535Z,1.00
2022-11-04T07:51:34.579Z,1.17
2022-11-04T07:53:55.062Z,1.90
2022-11-04T07:56:15.677Z,1.38
2022-11-04T07:58:35.903Z,1.58
2022-11-04T08:01:07.735Z,1.48
2022-11-04T08:03:27.671Z,1.40
2022-11-04T08:05:53.718Z,1.80
2022-11-04T08:08:13.670Z,1.70
2022-11-04T08:10:33.347Z,1.10
2022-11-04T08:12:52.880Z,1.55
2022-11-04T08:15:12.521Z,1.00
2022-11-04T08:17:32.233Z,1.85
2022-11-04T08:19:52.125Z,1.10
2022-11-04T08:22:11.787Z,1.00
2022-11-04T08:24:31.623Z,1.00
2022-11-04T08:26:51.699Z,1.38
2022-11-04T08:29:11.956Z,1.55
2022-11-04T08:31:33.010Z,1.00
2022-11-04T08:33:54.518Z,0.90
2022-11-04T08:36:20.354Z,1.00
2022-11-04T08:38:40.556Z,1.00
2022-11-04T08:41:02.524Z,1.10
2022-11-04T08:43:23.040Z,1.05
2022-11-04T08:45:44.992Z,0.90
2022-11-04T08:48:05.769Z,0.90
2022-11-04T08:50:27.194Z,1.20
2022-11-04T08:52:46.726Z,1.90
2022-11-04T08:55:07.270Z,1.17
2022-11-04T08:57:27.187Z,1.00
2022-11-04T08:59:46.915Z,0.90
2022-11-04T09:02:06.988Z,0.95
2022-11-04T09:04:27.156Z,1.00
2022-11-04T09:06:46.944Z,0.85
2022-11-04T09:09:09.448Z,1.10
2022-11-04T09:11:30.714Z,1.70
2022-11-04T09:13:50.871Z,1.00
2022-11-04T09:16:12.970Z,1.00
2022-11-04T09:18:32.895Z,1.00
2022-11-04T09:20:52.763Z,0.90
2022-11-04T09:23:12.939Z,0.90
2022-11-04T09:25:33.069Z,1.10
2022-11-04T09:27:53.126Z,1.00
2022-11-04T09:30:13.244Z,0.90
2022-11-04T09:32:33.130Z,1.00
2022-11-04T09:34:52.849Z,1.00
2022-11-04T09:37:12.668Z,1.00
2022-11-04T09:39:32.293Z,0.90
2022-11-04T09:42:19.400Z,0.90
2022-11-04T09:45:20.486Z,1.15
2022-11-04T09:47:41.664Z,1.00
2022-11-04T09:50:02.443Z,1.10
2022-11-04T09:52:30.504Z,1.00
2022-11-04T09:54:59.154Z,0.90
2022-11-04T09:57:19.803Z,1.00
2022-11-04T09:59:39.711Z,1.80
2022-11-04T10:02:23.217Z,0.93
2022-11-04T10:04:48.817Z,0.90
2022-11-04T10:07:36.072Z,1.08
2022-11-04T10:10:08.169Z,1.00
2022-11-04T10:12:43.280Z,1.08
2022-11-04T10:15:15.408Z,0.98
2022-11-04T10:17:47.222Z,0.93
2022-11-04T10:20:45.881Z,1.00
2022-11-04T10:23:43.667Z,0.95
2022-11-04T10:26:19.043Z,1.10
2022-11-04T10:28:55.988Z,1.23
2022-11-04T10:31:17.969Z,1.40
2022-11-04T10:33:43.052Z,1.00
2022-11-04T10:36:09.164Z,1.00
2022-11-04T10:38:46.371Z,1.00
2022-11-04T10:41:24.363Z,2.15
2022-11-04T10:43:44.079Z,1.02
2022-11-04T10:46:16.158Z,1.00
2022-11-04T10:49:08.891Z,1.40
2022-11-04T10:51:28.719Z,1.00
2022-11-04T10:54:00.326Z,1.02
2022-11-04T10:56:37.459Z,1.00
2022-11-04T10:59:08.024Z,0.90
2022-11-04T11:01:31.462Z,1.10
2022-11-04T11:03:51.620Z,2.00
2022-11-04T11:06:23.736Z,0.90
2022-11-04T11:08:43.816Z,0.90
2022-11-04T11:11:08.301Z,1.00
2022-11-04T11:13:38.858Z,1.00
2022-11-04T11:16:11.675Z,1.10
2022-11-04T11:18:31.675Z,1.00
2022-11-04T11:21:08.337Z,0.90
2022-11-04T11:23:46.851Z,1.00
2022-11-04T11:26:10.853Z,0.90
2022-11-04T11:28:37.340Z,0.93
2022-11-04T11:31:07.856Z,1.10
2022-11-04T11:33:33.305Z,1.10
2022-11-04T11:36:22.357Z,1.00
2022-11-04T11:38:57.638Z,0.93
2022-11-04T11:41:24.854Z,1.00
2022-11-04T11:43:50.908Z,1.13
2022-11-04T11:46:12.213Z,1.13
2022-11-04T11:48:40.191Z,1.02
2022-11-04T11:51:00.254Z,0.95
2022-11-04T11:53:23.652Z,0.90
2022-11-04T11:55:50.795Z,0.90
2022-11-04T12:01:22.367Z,0.90
2022-11-04T12:09:34.895Z,0.90
2022-11-04T12:12:17.847Z,0.80
2022-11-04T12:14:58.702Z,1.00
2022-11-04T12:17:46.320Z,1.58
2022-11-04T12:20:32.422Z,0.90
2022-11-04T12:22:54.672Z,0.90
2022-11-04T12:25:36.191Z,1.17
2022-11-04T12:28:23.653Z,0.90
2022-11-04T12:31:10.294Z,1.45
2022-11-04T12:33:50.874Z,0.80
2022-11-04T12:36:33.033Z,1.02
2022-11-04T12:39:19.297Z,0.90
2022-11-04T12:42:28.063Z,0.80
2022-11-04T12:44:51.269Z,0.80
2022-11-04T12:47:33.109Z,0.80
2022-11-04T12:49:56.573Z,0.88
2022-11-04T12:52:35.110Z,0.85
2022-11-04T12:55:16.758Z,1.23
2022-11-04T12:57:51.708Z,0.80
2022-11-04T13:00:18.295Z,0.80
2022-11-04T13:03:04.967Z,0.85
2022-11-04T13:05:34.058Z,0.90
2022-11-04T13:08:02.320Z,0.80
2022-11-04T13:10:31.124Z,0.73
2022-11-04T13:12:55.079Z,0.80
2022-11-04T13:15:28.190Z,0.70
2022-11-04T13:17:51.950Z,0.80
2022-11-04T13:20:14.571Z,0.85
2022-11-04T13:22:36.817Z,0.80
2022-11-04T13:25:03.301Z,0.90
2022-11-04T13:27:36.832Z,0.80
2022-11-04T13:30:44.238Z,0.80
2022-11-04T13:33:46.889Z,0.70
2022-11-04T13:36:25.387Z,0.70
2022-11-04T13:38:52.404Z,1.20
2022-11-04T13:41:31.389Z,0.80
2022-11-04T13:43:57.421Z,0.80
2022-11-04T13:46:29.361Z,0.70
2022-11-04T13:49:17.227Z,0.70
2022-11-04T13:51:45.843Z,1.45
2022-11-04T13:54:13.657Z,1.00
2022-11-04T13:56:39.738Z,0.80
2022-11-04T13:59:29.312Z,0.98
2022-11-04T14:02:09.260Z,0.80
2022-11-04T14:04:31.312Z,1.27
2022-11-04T14:06:53.728Z,0.80
2022-11-04T14:09:33.850Z,0.80
2022-11-04T14:12:14.079Z,1.15
2022-11-04T14:14:34.604Z,0.82
2022-11-04T14:16:54.738Z,0.90
2022-11-04T14:19:55.299Z,0.82
2022-11-04T14:22:16.919Z,0.95
2022-11-04T14:24:36.744Z,1.20
2022-11-04T14:26:56.175Z,1.67
2022-11-04T14:29:24.575Z,0.80
2022-11-04T14:31:51.857Z,0.90
2022-11-04T14:34:28.451Z,1.10
2022-11-04T14:36:54.816Z,0.90
2022-11-04T14:39:14.612Z,0.90
2022-11-04T14:41:40.378Z,0.88
2022-11-04T14:44:07.258Z,0.90
2022-11-04T14:46:31.153Z,1.08
2022-11-04T14:48:55.863Z,0.90
2022-11-04T14:51:29.533Z,0.95
2022-11-04T14:53:51.904Z,1.00
2022-11-04T14:56:17.776Z,1.20
2022-11-04T14:59:04.865Z,0.93
2022-11-04T15:01:33.835Z,0.93
2022-11-04T15:04:13.746Z,1.13
2022-11-04T15:06:53.727Z,1.10
2022-11-04T15:09:28.843Z,1.20
2022-11-04T15:12:06.869Z,1.00
2022-11-04T15:14:26.635Z,1.50
2022-11-04T15:16:49.172Z,1.35
2022-11-04T15:19:09.944Z,1.20
2022-11-04T15:21:30.055Z,1.70
2022-11-04T15:23:52.092Z,1.20
2022-11-04T15:26:30.107Z,1.10
2022-11-04T15:28:51.622Z,1.10
2022-11-04T15:31:11.507Z,3.15
2022-11-04T15:33:43.240Z,1.50
2022-11-04T15:36:03.570Z,1.85
2022-11-04T15:38:26.616Z,1.08
2022-11-04T15:40:46.695Z,1.92
2022-11-04T15:43:06.670Z,1.55
2022-11-04T15:45:29.779Z,2.08
2022-11-04T15:48:09.629Z,1.20
2022-11-04T15:50:30.369Z,1.35
2022-11-04T15:52:53.861Z,2.58
2022-11-04T15:55:23.345Z,2.92
2022-11-04T15:57:44.253Z,2.85
2022-11-04T16:00:15.691Z,1.30
2022-11-04T16:02:49.705Z,2.00
2022-11-04T16:05:10.002Z,3.13
2022-11-04T16:07:35.397Z,2.13
2022-11-04T16:09:55.247Z,1.67
2022-11-04T16:12:37.005Z,1.45
2022-11-04T16:14:58.335Z,1.90
2022-11-04T16:17:18.772Z,1.73
2022-11-04T16:19:38.869Z,2.58
2022-11-04T16:22:08.392Z,1.80
2022-11-04T16:24:39.665Z,3.28
2022-11-04T16:26:59.965Z,2.63
2022-11-04T16:29:33.669Z,3.92
2022-11-04T16:32:19.106Z,3.72
2022-11-04T16:34:39.195Z,3.78
2022-11-04T16:36:58.826Z,3.42
2022-11-04T16:39:18.510Z,2.60
2022-11-04T16:41:40.274Z,3.70
2022-11-04T16:44:00.150Z,3.60
2022-11-04T16:46:21.367Z,2.75
2022-11-04T16:48:41.075Z,3.25
2022-11-04T16:51:00.520Z,2.47
2022-11-04T16:53:20.116Z,2.78
2022-11-04T16:55:42.417Z,10.95
2022-11-04T16:58:06.799Z,4.70
2022-11-04T17:00:28.237Z,9.93
2022-11-04T17:02:48.890Z,12.10
2022-11-04T17:05:09.729Z,7.50
2022-11-04T17:07:47.422Z,2.63
2022-11-04T17:10:25.803Z,4.82
2022-11-04T17:12:46.344Z,3.75
2022-11-04T17:15:07.259Z,3.20
2022-11-04T17:17:27.007Z,3.38
2022-11-04T17:19:46.804Z,3.20
2022-11-04T17:22:07.868Z,2.85
2022-11-04T17:24:28.485Z,3.17
2022-11-04T17:26:48.257Z,2.10
2022-11-04T17:29:13.012Z,1.92
2022-11-04T17:31:36.956Z,3.97
2022-11-04T17:33:57.159Z,4.00
2022-11-04T17:36:18.602Z,4.47
2022-11-04T17:38:38.382Z,4.10
2022-11-04T17:41:16.320Z,2.60
2022-11-04T17:43:54.341Z,2.60
2022-11-04T17:46:32.616Z,11.30
2022-11-04T17:48:52.998Z,5.93
2022-11-04T17:51:13.062Z,3.22
2022-11-04T17:53:32.658Z,4.15
2022-11-04T17:55:52.424Z,17.67
2022-11-04T17:58:12.005Z,17.75
2022-11-04T18:00:31.971Z,13.52
2022-11-04T18:02:51.583Z,10.10
2022-11-04T18:05:12.049Z,9.68
2022-11-04T18:07:31.821Z,8.77
2022-11-04T18:09:51.480Z,8.63
2022-11-04T18:12:29.646Z,6.13
2022-11-04T18:14:49.681Z,7.10
2022-11-04T18:17:09.427Z,10.15
2022-11-04T18:19:29.004Z,5.57
2022-11-04T18:21:49.246Z,4.28
2022-11-04T18:24:10.625Z,5.25
2022-11-04T18:26:30.612Z,4.60
2022-11-04T18:28:50.610Z,6.78
2022-11-04T18:31:15.838Z,12.93
2022-11-04T18:33:36.154Z,16.70
2022-11-04T18:35:56.218Z,11.45
2022-11-04T18:38:15.850Z,11.88
2022-11-04T18:40:35.950Z,10.35
2022-11-04T18:42:55.749Z,11.07
2022-11-04T18:45:15.705Z,73.18
2022-11-04T18:47:35.373Z,25.98
2022-11-04T18:49:55.267Z,26.35
2022-11-04T18:52:15.080Z,9.88
2022-11-04T18:54:35.599Z,8.63
2022-11-04T18:56:55.294Z,23.50
2022-11-04T18:59:15.242Z,24.88
2022-11-04T19:01:35.240Z,17.98
2022-11-04T19:03:55.641Z,25.77
2022-11-04T19:06:30.321Z,17.48
2022-11-04T19:08:52.223Z,19.88
2022-11-04T19:11:18.523Z,23.17
2022-11-04T19:13:38.162Z,20.15
2022-11-04T19:16:04.703Z,9.32
2022-11-04T19:18:24.526Z,4.80
2022-11-04T19:20:44.918Z,6.85
2022-11-04T19:23:05.449Z,7.22
2022-11-04T19:25:25.252Z,5.15
2022-11-04T19:27:45.112Z,9.57
2022-11-04T19:30:05.260Z,7.07
2022-11-04T19:32:24.881Z,12.00
2022-11-04T19:34:44.431Z,16.27
2022-11-04T19:37:04.060Z,17.83
2022-11-04T19:39:23.674Z,36.63
2022-11-04T19:42:01.805Z,65.70
2022-11-04T19:44:21.747Z,25.70
2022-11-04T19:46:41.664Z,17.65
2022-11-04T19:49:01.673Z,14.43
2022-11-04T19:51:21.635Z,12.98
2022-11-04T19:53:41.403Z,20.60
2022-11-04T19:56:01.276Z,38.97
2022-11-04T19:58:22.416Z,18.17
2022-11-04T20:00:42.350Z,23.52
2022-11-04T20:03:01.992Z,24.20
2022-11-04T20:05:22.365Z,32.53
2022-11-04T20:07:42.378Z,22.63
2022-11-04T20:10:02.225Z,17.45
2022-11-04T20:12:40.345Z,10.80
2022-11-04T20:15:00.128Z,8.70
2022-11-04T20:17:19.705Z,8.23
2022-11-04T20:19:39.519Z,6.07
2022-11-04T20:21:59.696Z,6.63
2022-11-04T20:24:24.255Z,5.97
2022-11-04T20:26:45.855Z,6.47
2022-11-04T20:29:06.618Z,7.38
2022-11-04T20:31:30.422Z,14.73
2022-11-04T20:33:52.088Z,28.80
2022-11-04T20:36:12.629Z,8.15
2022-11-04T20:38:32.732Z,6.97
2022-11-04T20:40:52.551Z,6.60
2022-11-04T20:43:12.249Z,6.97
2022-11-04T20:45:32.354Z,7.60
2022-11-04T20:47:53.045Z,10.80
2022-11-04T20:50:12.824Z,11.43
2022-11-04T20:52:34.837Z,6.30
2022-11-04T20:54:54.539Z,4.83
2022-11-04T20:57:14.140Z,3.28
2022-11-04T20:59:33.689Z,12.25
2022-11-04T21:01:53.598Z,6.03
2022-11-04T21:04:18.367Z,7.03
2022-11-04T21:06:38.806Z,6.85
2022-11-04T21:08:59.021Z,7.80
2022-11-04T21:11:19.192Z,9.00
2022-11-04T21:13:38.823Z,10.18
2022-11-04T21:15:59.911Z,9.50
2022-11-04T21:18:20.242Z,9.98
2022-11-04T21:20:41.834Z,9.38
2022-11-04T21:23:01.566Z,8.00
2022-11-04T21:25:22.476Z,8.50
2022-11-04T21:27:42.525Z,9.65
2022-11-04T21:30:02.153Z,17.30
2022-11-04T21:32:22.139Z,24.73
2022-11-04T21:34:41.999Z,15.05
2022-11-04T21:37:01.540Z,7.95
2022-11-04T21:39:22.179Z,6.60
2022-11-04T21:41:41.795Z,6.68
2022-11-04T21:44:04.639Z,7.25
2022-11-04T21:46:26.084Z,7.30
2022-11-04T21:48:45.769Z,7.03
2022-11-04T21:51:11.912Z,6.57
2022-11-04T21:53:31.741Z,7.45
2022-11-04T21:55:51.601Z,9.65
2022-11-04T21:58:11.242Z,14.93
2022-11-04T22:00:31.235Z,28.60
2022-11-04T22:02:50.801Z,9.52
2022-11-04T22:05:11.381Z,7.32
2022-11-04T22:07:50.644Z,7.57
2022-11-04T22:10:10.116Z,5.63
2022-11-04T22:12:29.695Z,6.22
2022-11-04T22:14:49.381Z,5.05
2022-11-04T22:17:09.054Z,6.43
2022-11-04T22:19:28.806Z,8.20
2022-11-04T22:21:48.590Z,8.15
2022-11-04T22:24:13.297Z,8.68
2022-11-04T22:26:33.290Z,9.20
2022-11-04T22:28:55.173Z,9.73
2022-11-04T22:31:20.630Z,7.55
2022-11-04T22:33:40.432Z,8.25
2022-11-04T22:36:00.518Z,8.27
2022-11-04T22:38:20.086Z,6.90
2022-11-04T22:40:40.337Z,12.45
2022-11-04T22:43:00.140Z,7.45
2022-11-04T22:45:19.806Z,8.75
2022-11-04T22:47:40.747Z,6.35
2022-11-04T22:50:00.602Z,6.90
2022-11-04T22:52:20.135Z,7.07
2022-11-04T22:54:39.825Z,6.72
2022-11-04T22:56:59.662Z,6.95
2022-11-04T22:59:19.994Z,7.65
2022-11-04T23:01:39.781Z,6.88
2022-11-04T23:03:59.872Z,6.72
2022-11-04T23:06:20.204Z,6.28
2022-11-04T23:08:41.646Z,6.10
2022-11-04T23:11:26.875Z,5.95
2022-11-04T23:14:13.196Z,5.97
2022-11-04T23:16:55.490Z,5.68
2022-11-04T23:19:15.238Z,7.90
2022-11-04T23:21:53.448Z,6.72
2022-11-04T23:24:32.047Z,8.82
2022-11-04T23:26:51.996Z,7.30
2022-11-04T23:29:31.716Z,8.25
2022-11-04T23:31:51.537Z,9.73
2022-11-04T23:34:30.109Z,8.70
2022-11-04T23:37:08.196Z,8.57
2022-11-04T23:39:28.447Z,8.55
2022-11-04T23:42:06.314Z,8.40
2022-11-04T23:44:44.422Z,9.02
2022-11-04T23:47:26.849Z,8.80
2022-11-04T23:50:19.478Z,7.00
2022-11-04T23:52:58.249Z,9.38
2022-11-04T23:55:36.432Z,7.90
2022-11-04T23:58:14.927Z,8.48
